createdAt,value
2022-08-17T00:00:43.402Z,70.60
2022-08-17T00:03:19.109Z,71.05
2022-08-17T00:06:12.831Z,71.79
2022-08-17T00:08:56.136Z,72.61
2022-08-17T00:11:26.990Z,73.05
2022-08-17T00:14:01.806Z,73.17
2022-08-17T00:16:51.929Z,73.54
2022-08-17T00:19:26.525Z,73.42
2022-08-17T00:22:32.279Z,73.96
2022-08-17T00:24:47.285Z,74.54
2022-08-17T00:27:16.000Z,75.10
2022-08-17T00:29:46.484Z,75.37
2022-08-17T00:33:11.652Z,75.78
2022-08-17T00:35:10.044Z,76.07
2022-08-17T00:37:38.921Z,75.96
2022-08-17T00:40:11.183Z,76.39
2022-08-17T00:42:40.408Z,76.78
2022-08-17T00:45:11.019Z,77.18
2022-08-17T00:47:39.684Z,76.66
2022-08-17T00:50:12.000Z,77.45
2022-08-17T00:52:46.737Z,78.09
2022-08-17T00:55:15.720Z,78.15
2022-08-17T00:57:51.191Z,78.31
2022-08-17T01:00:27.599Z,78.37
2022-08-17T01:03:07.240Z,78.40
2022-08-17T01:05:42.551Z,78.12
2022-08-17T01:08:14.479Z,78.17
2022-08-17T01:10:59.864Z,78.18
2022-08-17T01:13:40.976Z,78.81
2022-08-17T01:16:36.397Z,78.72
2022-08-17T01:19:17.596Z,79.30
2022-08-17T01:22:08.510Z,79.94
2022-08-17T01:24:40.407Z,79.62
2022-08-17T01:27:10.946Z,80.32
2022-08-17T01:29:41.909Z,80.43
2022-08-17T01:32:10.794Z,80.36
2022-08-17T01:34:43.395Z,80.72
2022-08-17T01:37:14.819Z,80.95
2022-08-17T01:39:48.468Z,80.85
2022-08-17T01:42:22.139Z,81.32
2022-08-17T01:44:57.665Z,81.73
2022-08-17T01:47:26.464Z,81.90
2022-08-17T01:49:58.181Z,81.63
2022-08-17T01:52:26.909Z,81.85
2022-08-17T01:54:56.304Z,82.54
2022-08-17T01:57:24.579Z,82.96
2022-08-17T01:59:53.137Z,82.92
2022-08-17T02:02:31.156Z,82.99
2022-08-17T02:05:00.605Z,83.91
2022-08-17T02:07:29.599Z,83.70
2022-08-17T02:09:58.039Z,84.04
2022-08-17T02:12:39.249Z,83.92
2022-08-17T02:15:10.710Z,84.29
2022-08-17T02:17:41.363Z,83.86
2022-08-17T02:20:11.584Z,84.12
2022-08-17T02:22:45.131Z,83.92
2022-08-17T02:25:19.150Z,84.38
2022-08-17T02:27:52.791Z,84.58
2022-08-17T02:31:00.859Z,84.70
2022-08-17T02:33:10.034Z,85.90
2022-08-17T02:35:39.755Z,85.87
2022-08-17T02:38:08.630Z,85.70
2022-08-17T02:40:38.106Z,85.13
2022-08-17T02:43:07.514Z,85.77
2022-08-17T02:45:36.239Z,85.83
2022-08-17T02:48:05.604Z,85.73
2022-08-17T02:50:34.611Z,85.37
2022-08-17T02:53:04.619Z,85.41
2022-08-17T02:55:41.210Z,85.02
2022-08-17T02:58:11.254Z,84.48
2022-08-17T03:00:43.373Z,84.47
2022-08-17T03:03:14.043Z,84.32
2022-08-17T03:05:42.934Z,84.20
2022-08-17T03:08:13.061Z,84.29
2022-08-17T03:10:43.819Z,84.77
2022-08-17T03:13:15.095Z,85.09
2022-08-17T03:15:48.017Z,85.31
2022-08-17T03:18:24.650Z,84.56
2022-08-17T03:20:56.986Z,84.62
2022-08-17T03:23:26.064Z,84.91
2022-08-17T03:25:56.343Z,85.55
2022-08-17T03:28:25.707Z,85.95
2022-08-17T03:30:54.651Z,85.84
2022-08-17T03:33:23.469Z,86.10
2022-08-17T03:35:52.745Z,85.58
2022-08-17T03:38:21.434Z,85.79
2022-08-17T03:40:57.226Z,85.53
2022-08-17T03:43:32.787Z,85.95
2022-08-17T03:46:34.126Z,85.54
2022-08-17T03:49:24.185Z,86.24
2022-08-17T03:52:12.329Z,86.05
2022-08-17T03:55:01.027Z,86.38
2022-08-17T03:57:30.241Z,86.06
2022-08-17T03:59:58.837Z,86.31
2022-08-17T04:02:33.569Z,86.20
2022-08-17T04:05:02.471Z,86.18
2022-08-17T04:07:32.744Z,85.94
2022-08-17T04:10:01.865Z,85.89
2022-08-17T04:12:45.104Z,86.23
2022-08-17T04:15:13.985Z,86.12
2022-08-17T04:17:44.797Z,87.11
2022-08-17T04:20:15.946Z,87.34
2022-08-17T04:23:04.427Z,87.92
2022-08-17T04:25:36.035Z,88.18
2022-08-17T04:28:05.909Z,88.41
2022-08-17T04:30:45.984Z,88.76
2022-08-17T04:33:21.044Z,88.82
2022-08-17T04:35:52.299Z,88.56
2022-08-17T04:38:23.615Z,88.39
2022-08-17T04:41:11.701Z,88.25
2022-08-17T04:43:41.776Z,88.43
2022-08-17T04:46:16.359Z,88.45
2022-08-17T04:48:47.114Z,88.15
2022-08-17T04:51:26.244Z,88.17
2022-08-17T04:53:58.748Z,88.31
2022-08-17T04:56:28.374Z,88.77
2022-08-17T04:59:00.140Z,89.12
2022-08-17T05:01:31.959Z,89.14
2022-08-17T05:04:33.258Z,89.20
2022-08-17T05:06:55.935Z,89.13
2022-08-17T05:09:24.254Z,88.79
2022-08-17T05:11:52.897Z,88.72
2022-08-17T05:14:32.952Z,89.12
2022-08-17T05:17:07.433Z,88.76
2022-08-17T05:19:39.655Z,88.27
2022-08-17T05:22:08.455Z,88.62
2022-08-17T05:24:38.419Z,89.01
2022-08-17T05:27:08.270Z,89.67
2022-08-17T05:29:37.274Z,91.07
2022-08-17T05:32:39.173Z,91.93
2022-08-17T05:35:01.950Z,91.87
2022-08-17T05:37:30.829Z,92.19
2022-08-17T05:39:59.683Z,92.59
2022-08-17T05:42:28.542Z,92.16
2022-08-17T05:45:00.271Z,92.87
2022-08-17T05:47:29.470Z,91.83
2022-08-17T05:50:00.040Z,91.51
2022-08-17T05:52:39.710Z,91.23
2022-08-17T19:17:17.502Z,100.00
2022-08-17T19:20:03.880Z,100.00
2022-08-17T19:23:07.157Z,100.00
2022-08-17T19:25:41.160Z,99.68
2022-08-17T19:28:42.155Z,98.05
2022-08-17T19:31:29.474Z,97.29
2022-08-17T19:34:01.010Z,97.25
2022-08-17T19:36:57.692Z,96.85
2022-08-17T19:39:41.790Z,96.06
2022-08-17T19:42:19.936Z,96.36
2022-08-17T19:44:57.586Z,95.44
2022-08-17T19:47:53.170Z,95.30
2022-08-17T19:50:58.980Z,95.74
2022-08-17T19:53:54.208Z,95.63
2022-08-17T19:56:43.977Z,95.02
2022-08-17T19:59:16.903Z,94.76
2022-08-17T20:01:51.523Z,95.11
2022-08-17T20:04:44.025Z,94.30
2022-08-17T20:07:23.255Z,94.35
2022-08-17T20:10:03.111Z,95.32
2022-08-17T20:12:38.016Z,95.21
2022-08-17T20:15:17.781Z,95.14
2022-08-17T20:17:48.436Z,95.21
2022-08-17T20:20:25.561Z,96.34
2022-08-17T20:23:12.488Z,96.14
2022-08-17T20:26:05.522Z,96.08
2022-08-17T20:28:36.765Z,98.01
2022-08-17T20:31:43.778Z,98.35
2022-08-17T20:34:33.540Z,97.93
2022-08-17T20:37:15.601Z,96.96
2022-08-17T20:40:09.792Z,98.18
2022-08-17T20:42:40.045Z,97.07
2022-08-17T20:45:26.873Z,97.16
2022-08-17T20:48:27.224Z,96.38
2022-08-17T20:50:59.710Z,96.38
2022-08-17T20:53:49.755Z,96.09
2022-08-17T20:56:43.887Z,95.14
2022-08-17T20:59:21.891Z,94.55
2022-08-17T21:02:18.508Z,94.51
2022-08-17T21:04:50.790Z,93.75
2022-08-17T21:07:42.932Z,94.14
2022-08-17T21:10:19.006Z,93.80
2022-08-17T21:12:53.665Z,93.95
2022-08-17T21:16:01.551Z,93.46
2022-08-17T21:18:45.172Z,93.25
2022-08-17T21:21:32.439Z,92.83
2022-08-17T21:24:20.155Z,92.85
2022-08-17T21:26:56.142Z,93.40
2022-08-17T21:29:32.287Z,94.27
2022-08-17T21:32:02.721Z,94.17
2022-08-17T21:34:34.825Z,93.38
2022-08-17T21:37:23.362Z,92.88
2022-08-17T21:39:55.990Z,93.14
2022-08-17T21:42:32.131Z,93.23
2022-08-17T21:45:22.386Z,92.56
2022-08-17T21:48:08.756Z,92.39
2022-08-17T21:50:38.217Z,91.80
2022-08-17T21:53:07.360Z,92.20
2022-08-17T21:55:37.992Z,92.61
2022-08-17T21:58:19.771Z,92.16
2022-08-17T22:01:13.512Z,92.57
2022-08-17T22:03:42.620Z,92.91
2022-08-17T22:06:56.744Z,93.44
2022-08-17T22:09:27.971Z,92.94
2022-08-17T22:12:01.085Z,92.93
2022-08-17T22:14:52.301Z,92.45
2022-08-17T22:17:28.447Z,92.27
2022-08-17T22:20:07.059Z,92.14
2022-08-17T22:23:00.722Z,92.38
2022-08-17T22:25:31.918Z,92.58
2022-08-17T22:28:04.036Z,91.47
2022-08-17T22:30:38.957Z,92.01
2022-08-17T22:33:41.450Z,92.49
2022-08-17T22:36:29.508Z,92.40
2022-08-17T22:39:23.523Z,92.94
2022-08-17T22:41:56.595Z,93.57
2022-08-17T22:44:32.402Z,93.78
2022-08-17T22:47:31.357Z,93.90
2022-08-17T22:50:03.277Z,93.67
2022-08-17T22:53:01.957Z,94.48
2022-08-17T22:55:51.156Z,94.12
2022-08-17T22:58:41.238Z,94.13
2022-08-17T23:01:31.007Z,95.00
2022-08-17T23:04:08.690Z,95.25
2022-08-17T23:06:39.938Z,95.72
2022-08-17T23:09:09.053Z,96.04
2022-08-17T23:11:48.722Z,96.48
2022-08-17T23:14:21.005Z,96.98
2022-08-17T23:16:51.696Z,98.16
2022-08-17T23:19:22.289Z,98.78
2022-08-17T23:21:53.926Z,98.66
2022-08-17T23:24:25.967Z,97.80
2022-08-17T23:26:57.807Z,98.24
2022-08-17T23:29:30.131Z,98.22
2022-08-17T23:32:02.093Z,98.83
2022-08-17T23:34:31.047Z,99.25
2022-08-17T23:37:03.528Z,99.12
2022-08-17T23:39:32.754Z,99.24
2022-08-17T23:42:05.848Z,98.41
2022-08-17T23:44:36.526Z,98.04
2022-08-17T23:47:05.658Z,98.05
2022-08-17T23:49:34.332Z,98.19
2022-08-17T23:52:08.091Z,97.79
2022-08-17T23:54:45.076Z,97.49
2022-08-17T23:57:17.353Z,97.19
2022-08-17T23:59:46.353Z,97.53
